Aynor, South Carolina
Current Conditions -  °F | °C
As of 1:15 PM on Sunday 25 Jan 2015 (Local Time) from KHYW Reporting Station
Haze Haze  
Wind Chill: 55°   Ceiling: Unl
Heat Index: 55°   Visibility: 5mi
Dew Point: 34°   Wind: 5mph
Humidity: 44%   Direction: 210°SSW
Pressure: 29.94"   Gusts: NA
Location:  34°N, 79.2°W
Report Text: KHYW 251815Z AUTO 21004KT 5SM HZ CLR 13/01 A2994 RMK AO2
Loading
Personal Weather Stations






























Interactive Weather Map New forecast layout! Learn more

10-Day Weather Forecast

Advertisements
Track Severe Weather on mobile